sensor_id;sensor_type;location;lat;lon;timestamp;pressure;altitude;pressure_sealevel;temperature;humidity
60832;BME280;46665;51.558;-0.448;2023-03-31T00:00:57;98858.75;;;9.15;100.00
60832;BME280;46665;51.558;-0.448;2023-03-31T00:03:43;98859.06;;;9.13;100.00
60832;BME280;46665;51.558;-0.448;2023-03-31T00:06:28;98852.22;;;9.16;100.00
60832;BME280;46665;51.558;-0.448;2023-03-31T00:09:14;98852.84;;;9.13;100.00
60832;BME280;46665;51.558;-0.448;2023-03-31T00:12:07;98852.22;;;9.16;100.00
60832;BME280;46665;51.558;-0.448;2023-03-31T00:14:51;98827.47;;;9.17;100.00
60832;BME280;46665;51.558;-0.448;2023-03-31T00:17:36;98829.56;;;9.20;100.00
60832;BME280;46665;51.558;-0.448;2023-03-31T00:20:20;98826.53;;;9.22;100.00
60832;BME280;46665;51.558;-0.448;2023-03-31T00:23:05;98820.44;;;9.16;100.00
60832;BME280;46665;51.558;-0.448;2023-03-31T00:25:54;98805.78;;;9.17;100.00
60832;BME280;46665;51.558;-0.448;2023-03-31T00:28:38;98795.06;;;9.12;100.00
60832;BME280;46665;51.558;-0.448;2023-03-31T00:31:23;98789.31;;;9.14;100.00
60832;BME280;46665;51.558;-0.448;2023-03-31T00:34:07;98767.91;;;9.03;100.00
60832;BME280;46665;51.558;-0.448;2023-03-31T00:36:51;98756.75;;;9.05;100.00
60832;BME280;46665;51.558;-0.448;2023-03-31T00:39:38;98757.69;;;9.00;100.00
60832;BME280;46665;51.558;-0.448;2023-03-31T00:42:22;98744.28;;;8.95;100.00
60832;BME280;46665;51.558;-0.448;2023-03-31T00:48:05;98717.44;;;8.85;100.00
60832;BME280;46665;51.558;-0.448;2023-03-31T00:50:53;98714.59;;;8.81;100.00
60832;BME280;46665;51.558;-0.448;2023-03-31T00:53:39;98702.28;;;8.75;100.00
60832;BME280;46665;51.558;-0.448;2023-03-31T00:56:25;98693.34;;;8.75;100.00
60832;BME280;46665;51.558;-0.448;2023-03-31T00:59:11;98674.66;;;8.73;100.00
60832;BME280;46665;51.558;-0.448;2023-03-31T01:01:57;98673.72;;;8.69;100.00
60832;BME280;46665;51.558;-0.448;2023-03-31T01:04:49;98670.53;;;8.67;100.00
60832;BME280;46665;51.558;-0.448;2023-03-31T01:07:43;98655.19;;;8.62;100.00
60832;BME280;46665;51.558;-0.448;2023-03-31T01:10:32;98638.44;;;8.60;100.00
60832;BME280;46665;51.558;-0.448;2023-03-31T01:13:22;98618.19;;;8.58;100.00
60832;BME280;46665;51.558;-0.448;2023-03-31T01:16:07;98616.31;;;8.58;100.00
60832;BME280;46665;51.558;-0.448;2023-03-31T01:18:51;98609.91;;;8.54;100.00
60832;BME280;46665;51.558;-0.448;2023-03-31T01:22:06;98609.25;;;8.57;100.00
60832;BME280;46665;51.558;-0.448;2023-03-31T01:34:34;98563.47;;;8.56;100.00
60832;BME280;46665;51.558;-0.448;2023-03-31T01:43:25;98526.50;;;8.60;100.00
60832;BME280;46665;51.558;-0.448;2023-03-31T01:46:27;98512.63;;;8.61;100.00
60832;BME280;46665;51.558;-0.448;2023-03-31T01:49:33;98493.00;;;8.64;100.00
60832;BME280;46665;51.558;-0.448;2023-03-31T01:52:23;98488.88;;;8.67;100.00
60832;BME280;46665;51.558;-0.448;2023-03-31T01:55:17;98479.28;;;8.70;100.00
60832;BME280;46665;51.558;-0.448;2023-03-31T01:58:25;98482.16;;;8.73;100.00
60832;BME280;46665;51.558;-0.448;2023-03-31T02:01:38;98451.22;;;8.74;100.00
60832;BME280;46665;51.558;-0.448;2023-03-31T02:04:30;98450.72;;;8.81;100.00
60832;BME280;46665;51.558;-0.448;2023-03-31T02:07:23;98444.97;;;8.82;100.00
60832;BME280;46665;51.558;-0.448;2023-03-31T02:10:11;98438.59;;;8.87;100.00
60832;BME280;46665;51.558;-0.448;2023-03-31T02:12:58;98438.59;;;8.87;100.00
60832;BME280;46665;51.558;-0.448;2023-03-31T02:15:46;98421.97;;;8.88;100.00
60832;BME280;46665;51.558;-0.448;2023-03-31T02:18:32;98401.53;;;8.91;100.00
60832;BME280;46665;51.558;-0.448;2023-03-31T02:21:20;98390.69;;;8.91;100.00
60832;BME280;46665;51.558;-0.448;2023-03-31T02:24:09;98390.38;;;8.93;100.00
60832;BME280;46665;51.558;-0.448;2023-03-31T02:26:56;98380.00;;;8.95;100.00
60832;BME280;46665;51.558;-0.448;2023-03-31T02:29:44;98358.31;;;8.95;100.00
60832;BME280;46665;51.558;-0.448;2023-03-31T02:35:19;98356.06;;;8.97;100.00
60832;BME280;46665;51.558;-0.448;2023-03-31T02:38:04;98338.66;;;8.98;100.00
60832;BME280;46665;51.558;-0.448;2023-03-31T02:40:50;98324.63;;;8.96;100.00
60832;BME280;46665;51.558;-0.448;2023-03-31T02:43:34;98324.78;;;8.99;100.00
60832;BME280;46665;51.558;-0.448;2023-03-31T02:46:18;98310.41;;;8.99;100.00
60832;BME280;46665;51.558;-0.448;2023-03-31T02:49:04;98296.06;;;8.98;100.00
60832;BME280;46665;51.558;-0.448;2023-03-31T02:52:05;98294.94;;;8.99;100.00
60832;BME280;46665;51.558;-0.448;2023-03-31T02:58:04;98280.13;;;8.97;100.00
60832;BME280;46665;51.558;-0.448;2023-03-31T03:01:14;98266.88;;;8.95;100.00
60832;BME280;46665;51.558;-0.448;2023-03-31T03:10:47;98244.03;;;8.96;100.00
60832;BME280;46665;51.558;-0.448;2023-03-31T03:13:56;98232.75;;;8.94;100.00
60832;BME280;46665;51.558;-0.448;2023-03-31T03:16:47;98226.84;;;8.92;100.00
60832;BME280;46665;51.558;-0.448;2023-03-31T03:19:32;98210.91;;;8.90;100.00
60832;BME280;46665;51.558;-0.448;2023-03-31T03:22:16;98206.94;;;8.88;100.00
60832;BME280;46665;51.558;-0.448;2023-03-31T03:25:00;98205.00;;;8.88;100.00
60832;BME280;46665;51.558;-0.448;2023-03-31T03:27:44;98200.72;;;8.87;100.00
60832;BME280;46665;51.558;-0.448;2023-03-31T03:30:28;98184.44;;;8.87;100.00
60832;BME280;46665;51.558;-0.448;2023-03-31T03:33:12;98182.19;;;8.89;100.00
60832;BME280;46665;51.558;-0.448;2023-03-31T03:35:59;98174.38;;;8.88;100.00
60832;BME280;46665;51.558;-0.448;2023-03-31T03:38:44;98170.41;;;8.85;100.00
60832;BME280;46665;51.558;-0.448;2023-03-31T03:41:27;98164.53;;;8.83;100.00
60832;BME280;46665;51.558;-0.448;2023-03-31T03:44:11;98162.75;;;8.87;100.00
60832;BME280;46665;51.558;-0.448;2023-03-31T03:46:56;98161.69;;;8.80;100.00
60832;BME280;46665;51.558;-0.448;2023-03-31T03:49:40;98136.97;;;8.81;100.00
60832;BME280;46665;51.558;-0.448;2023-03-31T03:52:23;98143.03;;;8.78;100.00
60832;BME280;46665;51.558;-0.448;2023-03-31T03:55:07;98135.72;;;8.79;100.00
60832;BME280;46665;51.558;-0.448;2023-03-31T03:57:52;98122.47;;;8.77;100.00
60832;BME280;46665;51.558;-0.448;2023-03-31T04:00:36;98112.75;;;8.76;100.00
60832;BME280;46665;51.558;-0.448;2023-03-31T04:03:20;98107.34;;;8.76;100.00
60832;BME280;46665;51.558;-0.448;2023-03-31T04:06:04;98101.75;;;8.73;100.00
60832;BME280;46665;51.558;-0.448;2023-03-31T04:08:48;98089.66;;;8.70;100.00
60832;BME280;46665;51.558;-0.448;2023-03-31T04:11:32;98092.38;;;8.70;100.00
60832;BME280;46665;51.558;-0.448;2023-03-31T04:14:16;98085.03;;;8.71;100.00
60832;BME280;46665;51.558;-0.448;2023-03-31T04:17:00;98083.44;;;8.70;100.00
60832;BME280;46665;51.558;-0.448;2023-03-31T04:19:45;98065.47;;;8.65;100.00
60832;BME280;46665;51.558;-0.448;2023-03-31T04:22:34;98071.34;;;8.67;100.00
60832;BME280;46665;51.558;-0.448;2023-03-31T04:25:23;98056.06;;;8.62;100.00
60832;BME280;46665;51.558;-0.448;2023-03-31T04:28:07;98042.53;;;8.62;100.00
60832;BME280;46665;51.558;-0.448;2023-03-31T04:30:53;98038.56;;;8.60;100.00
60832;BME280;46665;51.558;-0.448;2023-03-31T04:33:37;98033.59;;;8.62;100.00
60832;BME280;46665;51.558;-0.448;2023-03-31T04:36:21;98036.44;;;8.65;100.00
60832;BME280;46665;51.558;-0.448;2023-03-31T04:39:05;98019.06;;;8.66;100.00
60832;BME280;46665;51.558;-0.448;2023-03-31T04:41:53;98020.50;;;8.64;100.00
60832;BME280;46665;51.558;-0.448;2023-03-31T04:44:37;98020.03;;;8.62;100.00
60832;BME280;46665;51.558;-0.448;2023-03-31T04:47:21;98009.19;;;8.62;100.00
60832;BME280;46665;51.558;-0.448;2023-03-31T04:50:06;98003.09;;;8.65;100.00
60832;BME280;46665;51.558;-0.448;2023-03-31T04:52:50;98000.28;;;8.61;100.00
60832;BME280;46665;51.558;-0.448;2023-03-31T04:55:34;97996.13;;;8.64;100.00
60832;BME280;46665;51.558;-0.448;2023-03-31T04:58:19;97980.06;;;8.59;100.00
60832;BME280;46665;51.558;-0.448;2023-03-31T05:01:03;97976.88;;;8.57;100.00
60832;BME280;46665;51.558;-0.448;2023-03-31T05:03:51;97973.50;;;8.60;100.00
60832;BME280;46665;51.558;-0.448;2023-03-31T05:06:35;97973.19;;;8.61;100.00
60832;BME280;46665;51.558;-0.448;2023-03-31T05:09:19;97964.91;;;8.58;100.00
60832;BME280;46665;51.558;-0.448;2023-03-31T05:12:03;97962.53;;;8.56;100.00
60832;BME280;46665;51.558;-0.448;2023-03-31T05:14:47;97965.03;;;8.61;100.00
60832;BME280;46665;51.558;-0.448;2023-03-31T05:17:33;97946.59;;;8.55;100.00
60832;BME280;46665;51.558;-0.448;2023-03-31T05:20:18;97952.50;;;8.57;100.00
60832;BME280;46665;51.558;-0.448;2023-03-31T05:23:02;97939.59;;;8.54;100.00
60832;BME280;46665;51.558;-0.448;2023-03-31T05:25:46;97929.88;;;8.53;100.00
60832;BME280;46665;51.558;-0.448;2023-03-31T05:28:30;97931.81;;;8.52;100.00
60832;BME280;46665;51.558;-0.448;2023-03-31T05:31:15;97935.50;;;8.48;100.00
60832;BME280;46665;51.558;-0.448;2023-03-31T05:33:59;97932.13;;;8.51;100.00
60832;BME280;46665;51.558;-0.448;2023-03-31T05:36:43;97922.41;;;8.50;100.00
60832;BME280;46665;51.558;-0.448;2023-03-31T05:39:27;97924.44;;;8.53;100.00
60832;BME280;46665;51.558;-0.448;2023-03-31T05:42:15;97930.22;;;8.51;100.00
60832;BME280;46665;51.558;-0.448;2023-03-31T05:44:59;97907.28;;;8.49;100.00
60832;BME280;46665;51.558;-0.448;2023-03-31T05:47:43;97914.06;;;8.55;100.00
60832;BME280;46665;51.558;-0.448;2023-03-31T05:50:27;97913.63;;;8.53;100.00
60832;BME280;46665;51.558;-0.448;2023-03-31T05:53:11;97902.78;;;8.53;100.00
60832;BME280;46665;51.558;-0.448;2023-03-31T05:56:00;97905.47;;;8.53;100.00
60832;BME280;46665;51.558;-0.448;2023-03-31T05:58:44;97894.19;;;8.51;100.00
60832;BME280;46665;51.558;-0.448;2023-03-31T06:01:28;97902.78;;;8.53;100.00
60832;BME280;46665;51.558;-0.448;2023-03-31T06:04:12;97893.84;;;8.52;100.00
60832;BME280;46665;51.558;-0.448;2023-03-31T06:06:56;97881.44;;;8.51;100.00
60832;BME280;46665;51.558;-0.448;2023-03-31T06:09:40;97898.13;;;8.53;100.00
60832;BME280;46665;51.558;-0.448;2023-03-31T06:12:24;97883.94;;;8.56;100.00
60832;BME280;46665;51.558;-0.448;2023-03-31T06:15:08;97887.13;;;8.58;100.00
60832;BME280;46665;51.558;-0.448;2023-03-31T06:17:52;97884.41;;;8.58;100.00
60832;BME280;46665;51.558;-0.448;2023-03-31T06:20:36;97884.41;;;8.58;100.00
60832;BME280;46665;51.558;-0.448;2023-03-31T06:23:21;97879.88;;;8.62;100.00
60832;BME280;46665;51.558;-0.448;2023-03-31T06:26:07;97882.59;;;8.62;100.00
60832;BME280;46665;51.558;-0.448;2023-03-31T06:28:51;97880.22;;;8.61;100.00
60832;BME280;46665;51.558;-0.448;2023-03-31T06:31:35;97873.66;;;8.62;100.00
60832;BME280;46665;51.558;-0.448;2023-03-31T06:34:20;97866.31;;;8.62;100.00
60832;BME280;46665;51.558;-0.448;2023-03-31T06:37:04;97856.25;;;8.63;100.00
60832;BME280;46665;51.558;-0.448;2023-03-31T06:39:48;97864.41;;;8.63;100.00
60832;BME280;46665;51.558;-0.448;2023-03-31T06:42:33;97859.91;;;8.67;100.00
60832;BME280;46665;51.558;-0.448;2023-03-31T06:45:17;97866.09;;;8.67;100.00
60832;BME280;46665;51.558;-0.448;2023-03-31T06:48:01;97873.25;;;8.72;100.00
60832;BME280;46665;51.558;-0.448;2023-03-31T06:50:45;97876.06;;;8.76;100.00
60832;BME280;46665;51.558;-0.448;2023-03-31T06:53:29;97861.72;;;8.75;100.00
60832;BME280;46665;51.558;-0.448;2023-03-31T06:56:14;97868.38;;;8.78;100.00
60832;BME280;46665;51.558;-0.448;2023-03-31T06:58:58;97862.63;;;8.79;100.00
60832;BME280;46665;51.558;-0.448;2023-03-31T07:01:42;97860.50;;;8.85;100.00
60832;BME280;46665;51.558;-0.448;2023-03-31T07:04:28;97862.88;;;8.86;100.00
60832;BME280;46665;51.558;-0.448;2023-03-31T07:07:12;97860.28;;;8.90;100.00
60832;BME280;46665;51.558;-0.448;2023-03-31T07:09:56;97859.94;;;8.92;100.00
60832;BME280;46665;51.558;-0.448;2023-03-31T07:12:40;97857.22;;;8.92;100.00
60832;BME280;46665;51.558;-0.448;2023-03-31T07:15:24;97853.84;;;8.95;100.00
60832;BME280;46665;51.558;-0.448;2023-03-31T07:18:09;97850.44;;;8.98;100.00
60832;BME280;46665;51.558;-0.448;2023-03-31T07:20:53;97855.41;;;8.96;100.00
60832;BME280;46665;51.558;-0.448;2023-03-31T07:23:37;97858.25;;;8.99;100.00
60832;BME280;46665;51.558;-0.448;2023-03-31T07:26:21;97854.41;;;9.00;100.00
60832;BME280;46665;51.558;-0.448;2023-03-31T07:29:05;97861.84;;;9.03;100.00
60832;BME280;46665;51.558;-0.448;2023-03-31T07:31:49;97850.91;;;9.00;100.00
60832;BME280;46665;51.558;-0.448;2023-03-31T07:34:33;97855.53;;;8.99;100.00
60832;BME280;46665;51.558;-0.448;2023-03-31T07:37:17;97856.78;;;9.02;100.00
60832;BME280;46665;51.558;-0.448;2023-03-31T07:40:02;97851.34;;;9.02;100.00
60832;BME280;46665;51.558;-0.448;2023-03-31T07:42:48;97836.66;;;9.03;100.00
60832;BME280;46665;51.558;-0.448;2023-03-31T07:45:34;97842.22;;;9.06;100.00
60832;BME280;46665;51.558;-0.448;2023-03-31T07:48:18;97848.06;;;9.08;100.00
60832;BME280;46665;51.558;-0.448;2023-03-31T07:51:02;97835.75;;;9.11;100.00
60832;BME280;46665;51.558;-0.448;2023-03-31T07:53:46;97846.50;;;9.07;100.00
60832;BME280;46665;51.558;-0.448;2023-03-31T07:56:32;97838.22;;;9.04;100.00
60832;BME280;46665;51.558;-0.448;2023-03-31T07:59:16;97844.09;;;9.06;100.00
60832;BME280;46665;51.558;-0.448;2023-03-31T08:02:00;97848.28;;;9.03;100.00
60832;BME280;46665;51.558;-0.448;2023-03-31T08:04:44;97838.69;;;9.06;100.00
60832;BME280;46665;51.558;-0.448;2023-03-31T08:07:33;97829.31;;;9.03;100.00
60832;BME280;46665;51.558;-0.448;2023-03-31T08:10:21;97839.38;;;9.03;100.00
60832;BME280;46665;51.558;-0.448;2023-03-31T08:13:05;97832.38;;;9.02;100.00
60832;BME280;46665;51.558;-0.448;2023-03-31T08:15:49;97827.59;;;8.99;100.00
60832;BME280;46665;51.558;-0.448;2023-03-31T08:18:33;97821.94;;;9.04;100.00
60832;BME280;46665;51.558;-0.448;2023-03-31T08:21:17;97826.13;;;9.01;100.00
60832;BME280;46665;51.558;-0.448;2023-03-31T08:24:02;97823.09;;;9.03;100.00
60832;BME280;46665;51.558;-0.448;2023-03-31T08:26:46;97820.16;;;9.08;100.00
60832;BME280;46665;51.558;-0.448;2023-03-31T08:29:30;97827.19;;;9.09;100.00
60832;BME280;46665;51.558;-0.448;2023-03-31T08:32:14;97821.63;;;9.05;100.00
60832;BME280;46665;51.558;-0.448;2023-03-31T08:34:58;97818.81;;;9.02;100.00
60832;BME280;46665;51.558;-0.448;2023-03-31T08:37:42;97816.09;;;9.02;100.00
60832;BME280;46665;51.558;-0.448;2023-03-31T08:40:27;97814.03;;;8.99;100.00
60832;BME280;46665;51.558;-0.448;2023-03-31T08:43:20;97810.69;;;9.02;100.00
60832;BME280;46665;51.558;-0.448;2023-03-31T08:46:09;97798.22;;;9.01;100.00
60832;BME280;46665;51.558;-0.448;2023-03-31T08:48:56;97804.44;;;9.01;100.00
60832;BME280;46665;51.558;-0.448;2023-03-31T08:51:48;97809.22;;;9.04;100.00
60832;BME280;46665;51.558;-0.448;2023-03-31T08:54:47;97806.03;;;9.02;100.00
60832;BME280;46665;51.558;-0.448;2023-03-31T08:57:41;97795.97;;;9.03;100.00
60832;BME280;46665;51.558;-0.448;2023-03-31T09:00:45;97781.50;;;8.99;100.00
60832;BME280;46665;51.558;-0.448;2023-03-31T09:04:02;97796.09;;;9.06;100.00
60832;BME280;46665;51.558;-0.448;2023-03-31T09:18:34;97790.88;;;9.14;100.00
60832;BME280;46665;51.558;-0.448;2023-03-31T09:21:34;97801.16;;;9.08;100.00
60832;BME280;46665;51.558;-0.448;2023-03-31T09:24:26;97784.31;;;9.15;100.00
60832;BME280;46665;51.558;-0.448;2023-03-31T09:27:11;97793.25;;;9.15;100.00
60832;BME280;46665;51.558;-0.448;2023-03-31T09:30:00;97780.47;;;9.16;100.00
60832;BME280;46665;51.558;-0.448;2023-03-31T09:32:47;97781.72;;;9.18;100.00
60832;BME280;46665;51.558;-0.448;2023-03-31T09:35:32;97792.91;;;9.17;100.00
60832;BME280;46665;51.558;-0.448;2023-03-31T09:38:16;97792.47;;;9.15;100.00
60832;BME280;46665;51.558;-0.448;2023-03-31T09:41:01;97769.28;;;9.17;100.00
60832;BME280;46665;51.558;-0.448;2023-03-31T09:43:46;97770.53;;;9.20;100.00
60832;BME280;46665;51.558;-0.448;2023-03-31T09:46:34;97795.72;;;9.20;100.00
60832;BME280;46665;51.558;-0.448;2023-03-31T09:49:21;97779.56;;;9.24;100.00
60832;BME280;46665;51.558;-0.448;2023-03-31T09:52:13;97785.09;;;9.27;100.00
60832;BME280;46665;51.558;-0.448;2023-03-31T09:58:05;97770.16;;;9.21;100.00
60832;BME280;46665;51.558;-0.448;2023-03-31T10:01:02;97774.13;;;9.24;100.00
60832;BME280;46665;51.558;-0.448;2023-03-31T10:03:52;97769.28;;;9.17;100.00
60832;BME280;46665;51.558;-0.448;2023-03-31T10:06:39;97772.34;;;9.16;100.00
60832;BME280;46665;51.558;-0.448;2023-03-31T10:09:27;97778.53;;;9.16;100.00
60832;BME280;46665;51.558;-0.448;2023-03-31T10:12:19;97781.06;;;9.09;100.00
60832;BME280;46665;51.558;-0.448;2023-03-31T10:15:17;97788.38;;;9.08;100.00
60832;BME280;46665;51.558;-0.448;2023-03-31T10:18:03;97798.56;;;9.11;100.00
60832;BME280;46665;51.558;-0.448;2023-03-31T10:20:51;97799.38;;;9.12;100.00
60832;BME280;46665;51.558;-0.448;2023-03-31T10:23:35;97796.19;;;9.10;100.00
60832;BME280;46665;51.558;-0.448;2023-03-31T10:26:21;97803.19;;;9.11;100.00
60832;BME280;46665;51.558;-0.448;2023-03-31T10:29:10;97815.63;;;9.12;100.00
60832;BME280;46665;51.558;-0.448;2023-03-31T10:32:02;97807.84;;;9.10;100.00
60832;BME280;46665;51.558;-0.448;2023-03-31T10:34:47;97821.63;;;9.18;100.00
60832;BME280;46665;51.558;-0.448;2023-03-31T10:37:33;97825.34;;;9.25;100.00
60832;BME280;46665;51.558;-0.448;2023-03-31T10:43:13;97831.91;;;9.24;100.00
60832;BME280;46665;51.558;-0.448;2023-03-31T10:45:59;97837.34;;;9.24;100.00
60832;BME280;46665;51.558;-0.448;2023-03-31T10:48:43;97845.03;;;9.22;100.00
60832;BME280;46665;51.558;-0.448;2023-03-31T10:51:28;97842.63;;;9.21;100.00
60832;BME280;46665;51.558;-0.448;2023-03-31T10:54:13;97850.44;;;9.22;100.00
60832;BME280;46665;51.558;-0.448;2023-03-31T10:56:59;97853.94;;;9.23;100.00
60832;BME280;46665;51.558;-0.448;2023-03-31T11:06:51;97866.13;;;9.41;100.00
60832;BME280;46665;51.558;-0.448;2023-03-31T11:10:06;97874.06;;;9.46;100.00
60832;BME280;46665;51.558;-0.448;2023-03-31T11:16:36;97880.25;;;9.59;100.00
60832;BME280;46665;51.558;-0.448;2023-03-31T11:25:21;97890.56;;;9.53;100.00
60832;BME280;46665;51.558;-0.448;2023-03-31T11:28:28;97899.94;;;9.56;100.00
60832;BME280;46665;51.558;-0.448;2023-03-31T11:40:43;97924.38;;;9.68;100.00
60832;BME280;46665;51.558;-0.448;2023-03-31T11:43:45;97931.59;;;9.76;100.00
60832;BME280;46665;51.558;-0.448;2023-03-31T11:49:22;97941.88;;;9.95;100.00
60832;BME280;46665;51.558;-0.448;2023-03-31T11:52:14;97950.91;;;9.99;100.00
60832;BME280;46665;51.558;-0.448;2023-03-31T11:55:19;97961.22;;;10.06;100.00
60832;BME280;46665;51.558;-0.448;2023-03-31T11:58:10;97965.16;;;10.09;100.00
60832;BME280;46665;51.558;-0.448;2023-03-31T12:01:08;97972.75;;;10.15;100.00
60832;BME280;46665;51.558;-0.448;2023-03-31T12:07:12;97978.81;;;10.25;100.00
60832;BME280;46665;51.558;-0.448;2023-03-31T12:10:03;97990.47;;;10.25;100.00
60832;BME280;46665;51.558;-0.448;2023-03-31T12:13:01;97985.66;;;10.31;100.00
60832;BME280;46665;51.558;-0.448;2023-03-31T12:21:48;98006.75;;;10.50;100.00
60832;BME280;46665;51.558;-0.448;2023-03-31T12:24:33;98014.13;;;10.77;100.00
60832;BME280;46665;51.558;-0.448;2023-03-31T12:27:27;98017.66;;;10.78;100.00
60832;BME280;46665;51.558;-0.448;2023-03-31T12:30:29;98016.84;;;11.05;100.00
60832;BME280;46665;51.558;-0.448;2023-03-31T12:33:21;98018.34;;;11.19;100.00
60832;BME280;46665;51.558;-0.448;2023-03-31T12:42:31;98052.19;;;10.90;100.00
60832;BME280;46665;51.558;-0.448;2023-03-31T12:49:07;98056.59;;;10.94;100.00
60832;BME280;46665;51.558;-0.448;2023-03-31T12:55:40;98061.78;;;10.99;100.00
60832;BME280;46665;51.558;-0.448;2023-03-31T13:01:21;98067.41;;;10.78;100.00
60832;BME280;46665;51.558;-0.448;2023-03-31T13:04:22;98076.63;;;10.74;100.00
60832;BME280;46665;51.558;-0.448;2023-03-31T13:07:36;98076.09;;;10.56;100.00
60832;BME280;46665;51.558;-0.448;2023-03-31T13:10:25;98098.41;;;10.49;100.00
60832;BME280;46665;51.558;-0.448;2023-03-31T13:13:15;98108.03;;;10.10;100.00
60832;BME280;46665;51.558;-0.448;2023-03-31T13:16:00;98110.50;;;9.78;100.00
60832;BME280;46665;51.558;-0.448;2023-03-31T13:18:50;98109.38;;;9.79;100.00
60832;BME280;46665;51.558;-0.448;2023-03-31T13:21:54;98107.56;;;9.83;100.00
60832;BME280;46665;51.558;-0.448;2023-03-31T13:24:39;98107.69;;;9.87;100.00
60832;BME280;46665;51.558;-0.448;2023-03-31T13:27:29;98101.91;;;9.88;100.00
60832;BME280;46665;51.558;-0.448;2023-03-31T13:33:31;98128.28;;;10.00;100.00
60832;BME280;46665;51.558;-0.448;2023-03-31T13:48:09;98161.97;;;9.62;100.00
60832;BME280;46665;51.558;-0.448;2023-03-31T14:03:43;98186.19;;;9.46;100.00
60832;BME280;46665;51.558;-0.448;2023-03-31T14:09:44;98226.50;;;9.57;100.00
60832;BME280;46665;51.558;-0.448;2023-03-31T14:12:36;98208.66;;;9.55;100.00
60832;BME280;46665;51.558;-0.448;2023-03-31T14:15:20;98213.97;;;9.64;100.00
60832;BME280;46665;51.558;-0.448;2023-03-31T14:18:05;98220.66;;;9.67;100.00
60832;BME280;46665;51.558;-0.448;2023-03-31T14:23:57;98227.50;;;9.73;100.00
60832;BME280;46665;51.558;-0.448;2023-03-31T14:27:14;98226.72;;;9.72;100.00
60832;BME280;46665;51.558;-0.448;2023-03-31T14:30:15;98251.22;;;9.64;100.00
60832;BME280;46665;51.558;-0.448;2023-03-31T14:36:22;98237.38;;;9.57;100.00
60832;BME280;46665;51.558;-0.448;2023-03-31T14:39:19;98248.13;;;9.53;100.00
60832;BME280;46665;51.558;-0.448;2023-03-31T14:42:10;98250.16;;;9.56;100.00
60832;BME280;46665;51.558;-0.448;2023-03-31T14:44:57;98254.91;;;9.59;100.00
60832;BME280;46665;51.558;-0.448;2023-03-31T14:47:58;98259.56;;;9.59;100.00
60832;BME280;46665;51.558;-0.448;2023-03-31T14:50:46;98264.66;;;9.60;100.00
60832;BME280;46665;51.558;-0.448;2023-03-31T14:53:30;98249.94;;;9.61;100.00
60832;BME280;46665;51.558;-0.448;2023-03-31T14:56:17;98267.19;;;9.65;100.00
60832;BME280;46665;51.558;-0.448;2023-03-31T14:59:04;98266.25;;;9.61;100.00
60832;BME280;46665;51.558;-0.448;2023-03-31T15:01:50;98282.81;;;9.68;100.00
60832;BME280;46665;51.558;-0.448;2023-03-31T15:04:39;98279.75;;;9.70;100.00
60832;BME280;46665;51.558;-0.448;2023-03-31T15:07:29;98286.56;;;9.76;100.00
60832;BME280;46665;51.558;-0.448;2023-03-31T15:10:18;98290.34;;;9.84;100.00
60832;BME280;46665;51.558;-0.448;2023-03-31T15:13:09;98290.22;;;9.80;100.00
60832;BME280;46665;51.558;-0.448;2023-03-31T15:15:54;98282.72;;;9.77;100.00
60832;BME280;46665;51.558;-0.448;2023-03-31T15:18:38;98294.97;;;9.83;100.00
60832;BME280;46665;51.558;-0.448;2023-03-31T15:21:25;98294.03;;;9.79;100.00
60832;BME280;46665;51.558;-0.448;2023-03-31T15:24:13;98310.59;;;9.86;100.00
60832;BME280;46665;51.558;-0.448;2023-03-31T15:27:07;98312.72;;;9.81;100.00
60832;BME280;46665;51.558;-0.448;2023-03-31T15:29:54;98307.56;;;9.67;100.00
60832;BME280;46665;51.558;-0.448;2023-03-31T15:32:40;98313.19;;;9.62;100.00
60832;BME280;46665;51.558;-0.448;2023-03-31T15:35:32;98331.28;;;9.58;100.00
60832;BME280;46665;51.558;-0.448;2023-03-31T15:38:17;98332.47;;;9.48;100.00
60832;BME280;46665;51.558;-0.448;2023-03-31T15:41:02;98338.69;;;9.48;100.00
60832;BME280;46665;51.558;-0.448;2023-03-31T15:43:48;98347.50;;;9.45;100.00
60832;BME280;46665;51.558;-0.448;2023-03-31T15:49:27;98354.97;;;9.69;100.00
60832;BME280;46665;51.558;-0.448;2023-03-31T15:52:26;98359.50;;;9.65;100.00
60832;BME280;46665;51.558;-0.448;2023-03-31T15:55:41;98356.63;;;9.62;100.00
60832;BME280;46665;51.558;-0.448;2023-03-31T15:58:45;98384.59;;;9.62;100.00
60832;BME280;46665;51.558;-0.448;2023-03-31T16:01:42;98370.09;;;9.58;100.00
60832;BME280;46665;51.558;-0.448;2023-03-31T16:04:31;98372.84;;;9.49;100.00
60832;BME280;46665;51.558;-0.448;2023-03-31T16:07:28;98391.06;;;9.49;100.00
60832;BME280;46665;51.558;-0.448;2023-03-31T16:10:18;98392.84;;;9.45;100.00
60832;BME280;46665;51.558;-0.448;2023-03-31T16:13:06;98399.25;;;9.40;100.00
60832;BME280;46665;51.558;-0.448;2023-03-31T16:15:51;98404.63;;;9.49;100.00
60832;BME280;46665;51.558;-0.448;2023-03-31T16:18:44;98414.03;;;9.51;100.00
60832;BME280;46665;51.558;-0.448;2023-03-31T16:21:36;98423.63;;;9.49;100.00
60832;BME280;46665;51.558;-0.448;2023-03-31T16:24:29;98418.41;;;9.44;100.00
60832;BME280;46665;51.558;-0.448;2023-03-31T16:27:14;98425.81;;;9.35;100.00
60832;BME280;46665;51.558;-0.448;2023-03-31T16:30:08;98425.66;;;9.31;100.00
60832;BME280;46665;51.558;-0.448;2023-03-31T16:33:01;98428.69;;;9.29;100.00
60832;BME280;46665;51.558;-0.448;2023-03-31T16:35:47;98436.84;;;9.29;100.00
60832;BME280;46665;51.558;-0.448;2023-03-31T16:38:33;98445.16;;;9.24;100.00
60832;BME280;46665;51.558;-0.448;2023-03-31T16:41:17;98448.19;;;9.23;100.00
60832;BME280;46665;51.558;-0.448;2023-03-31T16:44:02;98458.56;;;9.21;100.00
60832;BME280;46665;51.558;-0.448;2023-03-31T16:46:46;98463.88;;;9.17;100.00
60832;BME280;46665;51.558;-0.448;2023-03-31T16:49:30;98458.91;;;9.19;100.00
60832;BME280;46665;51.558;-0.448;2023-03-31T16:52:14;98460.69;;;9.15;100.00
60832;BME280;46665;51.558;-0.448;2023-03-31T16:54:58;98473.44;;;9.15;100.00
60832;BME280;46665;51.558;-0.448;2023-03-31T16:57:42;98467.53;;;9.13;100.00
60832;BME280;46665;51.558;-0.448;2023-03-31T17:00:26;98476.34;;;9.09;100.00
60832;BME280;46665;51.558;-0.448;2023-03-31T17:03:11;98489.56;;;9.11;100.00